Time;durP1;ratioP1;P1;durP2;ratioP2;P2;SDS_P1;SDS_P2;PMS_P1;PMS_P2;Temp;Humidity;BMP_temperature;BMP_pressure;BME280_temperature;BME280_humidity;BME280_pressure;Samples;Min_cycle;Max_cycle;Signal;HPM_P1;HPM_P2
2023/08/02 00:00:56;;;;;;;0.10;0.10;;;18.20;99.90;;;;;;5005249;28;20341;-80
2023/08/02 00:03:21;;;;;;;0.10;0.10;;;18.10;99.90;;;;;;5003734;28;20799;-80
2023/08/02 00:05:57;;;;;;;0.10;0.10;;;18.10;99.90;;;;;;5005699;28;20268;-80
2023/08/02 00:08:23;;;;;;;0.10;0.10;;;18.10;99.90;;;;;;5004719;28;20190;-80
2023/08/02 00:10:49;;;;;;;0.10;0.10;;;18.10;99.90;;;;;;5005009;28;20202;-80
2023/08/02 00:13:14;;;;;;;0.10;0.10;;;18.10;99.90;;;;;;5005540;28;20215;-80
2023/08/02 00:15:40;;;;;;;0.10;0.10;;;18.10;99.90;;;;;;5005418;28;20297;-80
2023/08/02 00:18:08;;;;;;;0.10;0.10;;;18.00;99.90;;;;;;5005428;28;20209;-80
2023/08/02 00:20:33;;;;;;;0.10;0.10;;;17.90;99.90;;;;;;5003589;28;20241;-80
2023/08/02 00:22:59;;;;;;;0.10;0.10;;;17.70;99.90;;;;;;5004894;28;20704;-81
2023/08/02 00:25:24;;;;;;;0.10;0.10;;;17.60;99.90;;;;;;5003947;28;20648;-82
2023/08/02 00:27:50;;;;;;;0.10;0.10;;;17.50;99.90;;;;;;5004371;28;20191;-81
2023/08/02 00:30:15;;;;;;;0.10;0.10;;;17.40;99.90;;;;;;5020025;28;20198;-81
2023/08/02 00:32:45;;;;;;;0.10;0.10;;;17.30;99.90;;;;;;5004280;28;20194;-81
2023/08/02 00:35:10;;;;;;;0.10;0.10;;;17.20;99.90;;;;;;5005628;28;20218;-82
2023/08/02 00:37:36;;;;;;;0.10;0.10;;;17.20;99.90;;;;;;5004225;28;20185;-82
2023/08/02 00:40:02;;;;;;;0.10;0.10;;;17.10;99.90;;;;;;5002475;28;20201;-81
2023/08/02 00:42:27;;;;;;;0.10;0.10;;;17.00;99.90;;;;;;5004057;28;20179;-81
2023/08/02 00:44:53;;;;;;;0.10;0.10;;;17.00;99.90;;;;;;5004714;28;20708;-81
2023/08/02 00:47:18;;;;;;;0.10;0.10;;;17.10;99.90;;;;;;5003965;28;20205;-81
2023/08/02 00:49:45;;;;;;;0.07;0.07;;;17.00;99.90;;;;;;5019680;28;20271;-80
2023/08/02 00:52:11;;;;;;;0.10;0.10;;;17.00;99.90;;;;;;5019375;28;21142;-81
2023/08/02 00:54:36;;;;;;;0.10;0.10;;;17.10;99.90;;;;;;5002675;28;20221;-82
2023/08/02 00:57:02;;;;;;;0.10;0.10;;;17.00;99.90;;;;;;5019748;28;20265;-82
2023/08/02 00:59:28;;;;;;;0.10;0.10;;;17.10;99.90;;;;;;5004129;28;20194;-81
2023/08/02 01:01:53;;;;;;;0.10;0.10;;;17.10;99.90;;;;;;5002437;28;20249;-81
2023/08/02 01:04:19;;;;;;;0.10;0.10;;;17.20;99.90;;;;;;5002427;28;20265;-81
2023/08/02 01:06:53;;;;;;;0.10;0.10;;;17.20;99.90;;;;;;5003234;28;20270;-81
2023/08/02 01:09:35;;;;;;;0.10;0.10;;;17.20;99.90;;;;;;5002532;28;20182;-82
2023/08/02 01:12:10;;;;;;;0.10;0.10;;;17.20;99.90;;;;;;5004539;28;20187;-81
2023/08/02 01:14:43;;;;;;;0.10;0.10;;;17.20;99.90;;;;;;5017661;28;20696;-81
2023/08/02 01:17:11;;;;;;;0.10;0.10;;;17.30;99.90;;;;;;5020001;28;20266;-81
2023/08/02 01:19:37;;;;;;;0.10;0.10;;;17.30;99.90;;;;;;5004298;28;20184;-82
2023/08/02 01:22:03;;;;;;;0.10;0.10;;;17.40;99.90;;;;;;5004642;28;20721;-81
2023/08/02 01:24:34;;;;;;;0.10;0.10;;;17.40;99.90;;;;;;5001992;28;20233;-81
2023/08/02 01:27:12;;;;;;;0.10;0.10;;;17.50;99.90;;;;;;5018600;28;20197;-82
2023/08/02 01:29:45;;;;;;;0.10;0.10;;;17.40;99.90;;;;;;5018376;28;20187;-81
2023/08/02 01:32:11;;;;;;;0.10;0.10;;;17.50;99.90;;;;;;5019260;28;20588;-82
2023/08/02 01:34:38;;;;;;;0.10;0.10;;;17.40;99.90;;;;;;5003906;28;20680;-81
2023/08/02 01:37:04;;;;;;;0.10;0.10;;;17.50;99.90;;;;;;5018877;28;20277;-81
2023/08/02 01:39:29;;;;;;;0.10;0.10;;;17.50;99.90;;;;;;5003549;28;20557;-81
2023/08/02 01:41:55;;;;;;;0.10;0.10;;;17.60;99.90;;;;;;5004331;28;20198;-82
2023/08/02 01:44:20;;;;;;;0.10;0.10;;;17.60;99.90;;;;;;5003089;28;20199;-81
2023/08/02 01:46:46;;;;;;;0.10;0.10;;;17.40;99.90;;;;;;5003044;28;20672;-82
2023/08/02 01:49:11;;;;;;;0.10;0.10;;;17.40;99.90;;;;;;5005486;28;20281;-81
2023/08/02 01:51:37;;;;;;;0.10;0.10;;;17.40;99.90;;;;;;5002728;28;20579;-82
2023/08/02 01:54:02;;;;;;;0.10;0.10;;;17.50;99.90;;;;;;5000924;28;20230;-82
2023/08/02 01:56:28;;;;;;;0.10;0.10;;;17.40;99.90;;;;;;5004296;28;20191;-82
2023/08/02 01:58:53;;;;;;;0.10;0.10;;;17.10;99.90;;;;;;5004229;28;20294;-82
2023/08/02 02:01:19;;;;;;;0.10;0.10;;;16.90;99.90;;;;;;5000946;28;20610;-81
2023/08/02 02:03:44;;;;;;;0.10;0.10;;;16.90;99.90;;;;;;5002002;28;20203;-82
2023/08/02 02:06:10;;;;;;;0.10;0.10;;;17.00;99.90;;;;;;5002445;28;20202;-81
2023/08/02 02:08:35;;;;;;;0.10;0.10;;;16.90;99.90;;;;;;5002509;28;20214;-82
2023/08/02 02:11:01;;;;;;;0.10;0.10;;;16.80;99.90;;;;;;5002406;28;20198;-82
2023/08/02 02:13:27;;;;;;;0.10;0.10;;;16.70;99.90;;;;;;5002189;28;20199;-81
2023/08/02 02:15:52;;;;;;;0.10;0.10;;;16.70;99.90;;;;;;5002698;28;20206;-82
2023/08/02 02:18:18;;;;;;;0.10;0.10;;;16.70;99.90;;;;;;5002579;28;20187;-82
2023/08/02 02:20:44;;;;;;;0.10;0.10;;;16.60;99.90;;;;;;5003864;28;20179;-81
2023/08/02 02:23:09;;;;;;;0.10;0.10;;;16.70;99.90;;;;;;5001639;28;20564;-81
2023/08/02 02:25:35;;;;;;;0.10;0.10;;;16.80;99.90;;;;;;5003540;28;21316;-81
2023/08/02 02:28:00;;;;;;;0.10;0.10;;;17.00;99.90;;;;;;5006687;28;20286;-82
2023/08/02 02:30:26;;;;;;;0.10;0.10;;;17.10;99.90;;;;;;5007313;28;20539;-82
2023/08/02 02:32:52;;;;;;;0.10;0.10;;;17.20;99.90;;;;;;5005836;28;20225;-81
2023/08/02 02:35:18;;;;;;;0.10;0.10;;;17.30;99.90;;;;;;5006637;28;20555;-81
2023/08/02 02:37:43;;;;;;;0.10;0.10;;;17.30;99.90;;;;;;5022139;28;20269;-81
2023/08/02 02:40:09;;;;;;;0.10;0.10;;;17.40;99.90;;;;;;5005570;28;20660;-81
2023/08/02 02:42:38;;;;;;;0.10;0.10;;;17.40;99.90;;;;;;5006052;28;20207;-81
2023/08/02 02:45:05;;;;;;;0.10;0.10;;;17.40;99.90;;;;;;5022074;28;20711;-81
2023/08/02 02:47:30;;;;;;;0.10;0.10;;;17.40;99.90;;;;;;5005812;28;20183;-81
2023/08/02 02:49:56;;;;;;;0.10;0.10;;;17.50;99.90;;;;;;5006732;28;20543;-82
2023/08/02 02:52:22;;;;;;;0.10;0.10;;;17.60;99.90;;;;;;5006249;28;20218;-82
2023/08/02 02:54:47;;;;;;;0.10;0.10;;;17.60;99.90;;;;;;5021937;28;20202;-82
2023/08/02 02:57:14;;;;;;;0.10;0.10;;;17.60;99.90;;;;;;5006619;28;20196;-82
2023/08/02 02:59:40;;;;;;;0.10;0.10;;;17.70;99.90;;;;;;5005383;28;20297;-82
2023/08/02 03:02:05;;;;;;;0.10;0.10;;;17.60;99.90;;;;;;5005342;28;20731;-81
2023/08/02 03:04:31;;;;;;;0.10;0.10;;;17.60;99.90;;;;;;5005451;28;20211;-81
2023/08/02 03:06:56;;;;;;;0.10;0.10;;;17.60;99.90;;;;;;5006885;28;20673;-81
2023/08/02 03:09:22;;;;;;;0.10;0.10;;;17.60;99.90;;;;;;5004798;28;20191;-81
2023/08/02 03:11:47;;;;;;;0.10;0.10;;;17.60;99.90;;;;;;5006513;28;20215;-81
2023/08/02 03:14:13;;;;;;;0.10;0.10;;;17.60;99.90;;;;;;5006605;28;20277;-81
2023/08/02 03:16:38;;;;;;;0.10;0.10;;;17.60;99.90;;;;;;5005695;28;20191;-81
2023/08/02 03:19:05;;;;;;;0.10;0.10;;;17.60;99.90;;;;;;5005124;28;20576;-82
2023/08/02 03:21:32;;;;;;;0.10;0.10;;;17.40;99.90;;;;;;5004806;28;20183;-81
2023/08/02 03:23:57;;;;;;;0.10;0.10;;;17.40;99.90;;;;;;5020693;28;20210;-81
2023/08/02 03:26:23;;;;;;;0.10;0.10;;;17.40;99.90;;;;;;5006680;28;20175;-82
2023/08/02 03:28:48;;;;;;;0.10;0.10;;;17.30;99.90;;;;;;5021582;28;20656;-81
2023/08/02 03:31:14;;;;;;;0.10;0.10;;;17.30;99.90;;;;;;5020880;28;20203;-81
2023/08/02 03:33:39;;;;;;;0.10;0.10;;;17.40;99.90;;;;;;5005627;28;21035;-81
2023/08/02 03:36:05;;;;;;;0.10;0.10;;;17.40;99.90;;;;;;5004155;28;20768;-81
2023/08/02 03:38:31;;;;;;;0.10;0.10;;;17.40;99.90;;;;;;5005249;28;21120;-81
2023/08/02 03:40:56;;;;;;;0.10;0.10;;;17.40;99.90;;;;;;5005607;28;20190;-81
2023/08/02 03:43:22;;;;;;;0.10;0.10;;;17.50;99.90;;;;;;5004435;28;20299;-81
2023/08/02 03:45:49;;;;;;;0.10;0.10;;;17.50;99.90;;;;;;5006775;28;20203;-81
2023/08/02 03:48:15;;;;;;;0.10;0.10;;;17.50;99.90;;;;;;5005289;28;20270;-81
2023/08/02 03:50:41;;;;;;;0.10;0.10;;;17.60;99.90;;;;;;5020639;28;20198;-80
2023/08/02 03:53:07;;;;;;;0.10;0.10;;;17.70;99.90;;;;;;5005406;28;20582;-80
2023/08/02 03:55:32;;;;;;;0.10;0.10;;;17.70;99.90;;;;;;5005427;28;20246;-81
2023/08/02 03:57:58;;;;;;;0.10;0.10;;;17.80;99.90;;;;;;5004764;28;20187;-81
2023/08/02 04:00:23;;;;;;;0.10;0.10;;;17.90;99.90;;;;;;5006258;28;20229;-81
2023/08/02 04:02:49;;;;;;;0.10;0.10;;;17.90;99.90;;;;;;5005271;28;20217;-81
2023/08/02 04:05:14;;;;;;;0.10;0.10;;;17.90;99.90;;;;;;5006439;28;20191;-81
2023/08/02 04:07:40;;;;;;;0.10;0.10;;;17.80;99.90;;;;;;5005013;28;20237;-80
2023/08/02 04:10:06;;;;;;;0.10;0.10;;;17.80;99.90;;;;;;5003788;28;20215;-81
2023/08/02 04:12:32;;;;;;;0.10;0.10;;;17.80;99.90;;;;;;5004763;28;20667;-81
2023/08/02 04:14:57;;;;;;;0.10;0.10;;;17.80;99.90;;;;;;5005781;28;20199;-81
2023/08/02 04:17:25;;;;;;;0.10;0.10;;;17.80;99.90;;;;;;5005243;28;20189;-81
2023/08/02 04:19:51;;;;;;;0.10;0.10;;;17.80;99.90;;;;;;5003958;28;20186;-81
2023/08/02 04:22:16;;;;;;;0.10;0.10;;;17.80;99.90;;;;;;5019125;28;20187;-81
2023/08/02 04:24:42;;;;;;;0.10;0.10;;;17.80;99.90;;;;;;5019798;28;20334;-81
2023/08/02 04:27:07;;;;;;;0.10;0.10;;;17.70;99.90;;;;;;5002558;28;20215;-81
2023/08/02 04:29:33;;;;;;;0.10;0.10;;;17.70;99.90;;;;;;5004912;28;20224;-81
2023/08/02 04:31:58;;;;;;;0.10;0.10;;;17.80;99.90;;;;;;5004234;28;20455;-81
2023/08/02 04:34:24;;;;;;;0.10;0.10;;;17.80;99.90;;;;;;5003705;28;20240;-81
2023/08/02 04:36:50;;;;;;;0.10;0.10;;;17.80;99.90;;;;;;5004430;28;20190;-81
2023/08/02 04:39:16;;;;;;;0.10;0.10;;;17.70;99.90;;;;;;5000751;28;20774;-82
2023/08/02 04:41:41;;;;;;;0.10;0.10;;;17.70;99.90;;;;;;5003698;28;20193;-82
2023/08/02 04:44:07;;;;;;;0.10;0.10;;;17.80;99.90;;;;;;4999909;28;20697;-81
2023/08/02 04:46:32;;;;;;;0.10;0.10;;;17.80;99.90;;;;;;5000069;28;20197;-82
2023/08/02 04:48:58;;;;;;;0.10;0.10;;;17.70;99.90;;;;;;5002704;28;20231;-82
2023/08/02 04:51:24;;;;;;;0.10;0.10;;;17.80;99.90;;;;;;5000850;28;20196;-82
2023/08/02 04:53:49;;;;;;;0.10;0.10;;;17.80;99.90;;;;;;4998805;28;20207;-82
2023/08/02 04:56:16;;;;;;;0.10;0.10;;;17.90;99.90;;;;;;4999339;28;20187;-81
2023/08/02 04:58:42;;;;;;;0.10;0.10;;;17.90;99.90;;;;;;5003275;28;20779;-81
2023/08/02 05:01:08;;;;;;;0.10;0.10;;;17.90;99.90;;;;;;5002202;28;20267;-81
2023/08/02 05:03:35;;;;;;;0.10;0.10;;;18.00;99.90;;;;;;5001211;28;20205;-81
2023/08/02 05:06:01;;;;;;;0.10;0.10;;;18.00;99.90;;;;;;5002374;28;20186;-80
2023/08/02 05:08:35;;;;;;;0.10;0.10;;;18.00;99.90;;;;;;5003101;28;20187;-81
2023/08/02 05:11:05;;;;;;;0.10;0.10;;;18.00;99.90;;;;;;5004135;28;20195;-82
2023/08/02 05:13:30;;;;;;;0.10;0.10;;;18.00;99.90;;;;;;5002087;28;20211;-82
2023/08/02 05:15:56;;;;;;;0.10;0.10;;;17.90;99.90;;;;;;5002201;28;20203;-81
2023/08/02 05:18:22;;;;;;;0.10;0.10;;;17.90;99.90;;;;;;5000150;28;20269;-83
2023/08/02 05:20:48;;;;;;;0.10;0.10;;;17.70;99.90;;;;;;5014126;28;20180;-82
2023/08/02 05:23:14;;;;;;;0.10;0.10;;;17.80;99.90;;;;;;5002185;28;20595;-82
2023/08/02 05:25:41;;;;;;;0.10;0.10;;;17.90;99.90;;;;;;5002602;28;20187;-82
2023/08/02 05:28:06;;;;;;;0.10;0.10;;;17.80;99.90;;;;;;5015782;28;20215;-83
2023/08/02 05:30:35;;;;;;;0.10;0.10;;;17.80;99.90;;;;;;5002421;28;20207;-82
2023/08/02 05:33:01;;;;;;;0.10;0.10;;;17.90;99.90;;;;;;5000808;28;20608;-81
2023/08/02 05:35:29;;;;;;;0.10;0.10;;;18.00;99.90;;;;;;4999880;28;20202;-81
2023/08/02 05:37:55;;;;;;;0.10;0.10;;;17.90;99.90;;;;;;5001660;28;20769;-81
2023/08/02 05:40:21;;;;;;;0.10;0.10;;;17.90;99.90;;;;;;5006038;28;20186;-82
2023/08/02 05:42:47;;;;;;;0.10;0.10;;;17.90;99.90;;;;;;5004381;28;20179;-82
2023/08/02 05:45:13;;;;;;;0.10;0.10;;;17.90;99.90;;;;;;5005907;28;20959;-81
2023/08/02 05:47:38;;;;;;;0.10;0.10;;;17.80;99.90;;;;;;5005112;28;20194;-81
2023/08/02 05:50:04;;;;;;;0.10;0.10;;;17.70;99.90;;;;;;5005646;28;20199;-81
2023/08/02 05:52:30;;;;;;;0.10;0.10;;;17.90;99.90;;;;;;5007921;28;20713;-82
2023/08/02 05:54:55;;;;;;;0.10;0.10;;;17.90;99.90;;;;;;5021182;28;20235;-82
2023/08/02 05:57:21;;;;;;;0.10;0.10;;;17.90;99.90;;;;;;5004120;28;20191;-82
2023/08/02 05:59:50;;;;;;;0.10;0.10;;;18.00;99.90;;;;;;5019399;28;20326;-82
2023/08/02 06:02:16;;;;;;;0.10;0.10;;;18.10;99.90;;;;;;5007890;28;20182;-82
2023/08/02 06:04:45;;;;;;;0.10;0.10;;;18.00;99.90;;;;;;5024240;28;21265;-83
2023/08/02 06:07:10;;;;;;;0.10;0.10;;;18.00;99.90;;;;;;5009558;28;20258;-84
2023/08/02 06:09:36;;;;;;;0.10;0.10;;;18.10;99.90;;;;;;5007155;28;20190;-84
2023/08/02 06:12:02;;;;;;;0.10;0.10;;;18.10;99.90;;;;;;5009045;28;20209;-84
2023/08/02 06:14:27;;;;;;;0.10;0.10;;;18.10;99.90;;;;;;5006769;28;20347;-83
2023/08/02 06:16:53;;;;;;;0.10;0.10;;;18.10;99.90;;;;;;5008157;28;20560;-83
2023/08/02 06:19:18;;;;;;;0.10;0.10;;;18.10;99.90;;;;;;5010554;28;20560;-83
2023/08/02 06:21:44;;;;;;;0.10;0.10;;;18.10;99.90;;;;;;5009964;28;20187;-82
2023/08/02 06:24:09;;;;;;;0.10;0.10;;;18.10;99.90;;;;;;5004062;28;20209;-82
2023/08/02 06:26:35;;;;;;;0.10;0.10;;;18.10;99.90;;;;;;5007156;28;20257;-82
2023/08/02 06:29:01;;;;;;;0.10;0.10;;;18.00;99.90;;;;;;5008236;28;20203;-81
2023/08/02 06:31:27;;;;;;;0.10;0.10;;;17.90;99.90;;;;;;5022349;28;20233;-82
2023/08/02 06:33:52;;;;;;;0.10;0.10;;;17.80;99.90;;;;;;5006228;28;20301;-82
2023/08/02 06:36:18;;;;;;;0.10;0.10;;;17.70;99.90;;;;;;5007498;28;20474;-82
2023/08/02 06:38:48;;;;;;;0.10;0.10;;;17.60;99.90;;;;;;5006558;28;20553;-82
2023/08/02 06:41:13;;;;;;;0.10;0.10;;;17.60;99.90;;;;;;5018743;28;20267;-81
2023/08/02 06:43:39;;;;;;;0.10;0.10;;;17.50;99.90;;;;;;5009582;28;20775;-81
2023/08/02 06:46:05;;;;;;;0.10;0.10;;;17.50;99.90;;;;;;5010700;28;20532;-81
2023/08/02 06:48:30;;;;;;;0.10;0.10;;;17.40;99.90;;;;;;5013735;28;20190;-85
2023/08/02 06:50:56;;;;;;;0.10;0.10;;;17.40;99.90;;;;;;5011696;28;20249;-82
2023/08/02 06:53:22;;;;;;;0.10;0.10;;;17.40;99.90;;;;;;5009932;28;20261;-82
2023/08/02 06:55:47;;;;;;;0.10;0.10;;;17.30;99.90;;;;;;5008816;28;20195;-84
2023/08/02 06:58:13;;;;;;;0.10;0.10;;;17.30;99.90;;;;;;5005762;28;20664;-84
2023/08/02 07:00:40;;;;;;;0.10;0.10;;;17.30;99.90;;;;;;5001486;28;20208;-84
2023/08/02 07:03:05;;;;;;;0.10;0.10;;;17.40;99.90;;;;;;5021554;28;20183;-83
2023/08/02 07:05:33;;;;;;;0.10;0.10;;;17.40;99.90;;;;;;5002816;28;20201;-84
2023/08/02 07:08:01;;;;;;;0.10;0.10;;;17.40;99.90;;;;;;5010771;28;20183;-83
2023/08/02 07:10:27;;;;;;;0.10;0.10;;;17.40;99.90;;;;;;5004336;28;20187;-83
2023/08/02 07:12:54;;;;;;;0.10;0.10;;;17.40;99.90;;;;;;5005398;28;20187;-83
2023/08/02 07:15:20;;;;;;;0.10;0.10;;;17.40;99.90;;;;;;5005006;28;20973;-83
2023/08/02 07:17:47;;;;;;;0.10;0.10;;;17.40;99.90;;;;;;5007210;28;20187;-83
2023/08/02 07:20:13;;;;;;;0.10;0.10;;;17.50;99.90;;;;;;5004218;28;20191;-81
2023/08/02 07:22:41;;;;;;;0.10;0.10;;;17.50;99.90;;;;;;5001783;28;20205;-82
2023/08/02 07:25:07;;;;;;;0.10;0.10;;;17.60;99.90;;;;;;5003871;28;20218;-82
2023/08/02 07:27:33;;;;;;;0.10;0.10;;;17.70;99.90;;;;;;5021341;28;20210;-81
2023/08/02 07:29:58;;;;;;;0.10;0.10;;;17.60;99.90;;;;;;5004373;28;20191;-81
2023/08/02 07:32:25;;;;;;;0.10;0.10;;;17.50;99.90;;;;;;5023250;28;20208;-82
2023/08/02 07:34:51;;;;;;;0.10;0.10;;;17.60;99.90;;;;;;5011182;28;20207;-82
2023/08/02 07:37:16;;;;;;;0.10;0.10;;;17.70;99.90;;;;;;5011563;28;20194;-82
2023/08/02 07:39:42;;;;;;;0.10;0.10;;;17.80;99.90;;;;;;5028803;28;20194;-81
2023/08/02 07:42:07;;;;;;;0.10;0.10;;;17.80;99.90;;;;;;5004909;28;20187;-82
2023/08/02 07:44:33;;;;;;;0.10;0.10;;;17.90;99.90;;;;;;5004960;28;21631;-81
2023/08/02 07:46:59;;;;;;;0.10;0.10;;;17.90;99.90;;;;;;5003782;28;20194;-81
2023/08/02 07:49:24;;;;;;;0.10;0.10;;;17.90;99.90;;;;;;5002018;28;20186;-81
2023/08/02 07:51:50;;;;;;;0.10;0.10;;;18.00;99.90;;;;;;5009101;28;20214;-80
2023/08/02 07:54:15;;;;;;;0.10;0.10;;;18.00;99.90;;;;;;5006258;28;20206;-81
2023/08/02 07:56:41;;;;;;;0.10;0.10;;;18.10;99.90;;;;;;5006520;28;20203;-81
2023/08/02 07:59:07;;;;;;;0.10;0.10;;;18.10;99.90;;;;;;5008590;28;20191;-81
2023/08/02 08:01:32;;;;;;;0.40;0.40;;;18.20;99.90;;;;;;5006900;28;20206;-81
2023/08/02 08:03:58;;;;;;;0.10;0.10;;;18.10;99.90;;;;;;5007469;28;20211;-81
2023/08/02 08:06:24;;;;;;;0.10;0.10;;;18.10;99.90;;;;;;5008086;28;20278;-81
2023/08/02 08:08:50;;;;;;;0.10;0.10;;;17.90;99.90;;;;;;5006390;28;20186;-81
2023/08/02 08:11:15;;;;;;;0.10;0.10;;;17.90;99.90;;;;;;5006410;28;20217;-81
2023/08/02 08:13:41;;;;;;;0.10;0.10;;;17.90;99.90;;;;;;5004325;28;21699;-82
2023/08/02 08:16:07;;;;;;;0.10;0.10;;;17.90;99.90;;;;;;5003519;28;20218;-82
2023/08/02 08:18:33;;;;;;;0.10;0.10;;;17.90;99.90;;;;;;5003112;28;20232;-82
2023/08/02 08:21:01;;;;;;;0.10;0.10;;;17.90;99.90;;;;;;5004072;28;20543;-83
2023/08/02 08:23:27;;;;;;;0.10;0.10;;;17.90;99.90;;;;;;5001071;28;21272;-82
2023/08/02 08:25:52;;;;;;;0.03;0.03;;;17.90;99.90;;;;;;5002624;28;20340;-81
2023/08/02 08:28:18;;;;;;;0.10;0.10;;;17.90;99.90;;;;;;5002797;28;20202;-81
2023/08/02 08:30:43;;;;;;;0.10;0.10;;;18.00;99.90;;;;;;5018790;28;20329;-82
2023/08/02 08:33:09;;;;;;;0.10;0.10;;;18.00;99.90;;;;;;5002198;28;20751;-82
2023/08/02 08:35:35;;;;;;;0.10;0.10;;;18.10;99.90;;;;;;5019664;28;20203;-82
2023/08/02 08:38:01;;;;;;;0.10;0.10;;;18.10;99.90;;;;;;5002521;28;20194;-82
2023/08/02 08:40:27;;;;;;;0.10;0.10;;;18.10;99.90;;;;;;5001669;28;20353;-82
2023/08/02 08:42:55;;;;;;;0.10;0.10;;;18.20;99.90;;;;;;5002051;28;20278;-82
2023/08/02 08:45:24;;;;;;;0.10;0.10;;;18.20;99.90;;;;;;5001434;28;20601;-82
2023/08/02 08:47:50;;;;;;;0.10;0.10;;;18.20;99.90;;;;;;5005078;28;20199;-82
2023/08/02 08:50:17;;;;;;;0.10;0.10;;;18.10;99.90;;;;;;5001142;28;20206;-82
2023/08/02 08:52:47;;;;;;;0.10;0.10;;;18.10;99.90;;;;;;5004221;28;20195;-82
2023/08/02 08:55:14;;;;;;;0.10;0.10;;;18.10;99.90;;;;;;5017301;28;20879;-82
2023/08/02 08:57:41;;;;;;;0.10;0.10;;;18.10;99.90;;;;;;5004824;28;20184;-82
2023/08/02 09:00:11;;;;;;;0.10;0.10;;;18.20;99.90;;;;;;5002412;28;20270;-82
2023/08/02 09:02:38;;;;;;;0.10;0.10;;;18.20;99.90;;;;;;5000265;28;20183;-82
2023/08/02 09:05:04;;;;;;;0.10;0.10;;;18.30;99.90;;;;;;5003234;28;21048;-82
2023/08/02 09:07:33;;;;;;;0.10;0.10;;;18.30;99.90;;;;;;5003374;28;20212;-82
2023/08/02 09:09:58;;;;;;;0.10;0.10;;;18.20;99.90;;;;;;5000861;28;20692;-82
2023/08/02 09:12:24;;;;;;;0.10;0.10;;;18.20;99.90;;;;;;5000616;28;20189;-83
2023/08/02 09:15:04;;;;;;;0.10;0.10;;;18.10;99.90;;;;;;5004219;28;20286;-82
2023/08/02 09:17:51;;;;;;;0.10;0.10;;;18.10;99.90;;;;;;5018601;28;20216;-82
2023/08/02 09:20:21;;;;;;;0.10;0.10;;;18.20;99.90;;;;;;5002730;28;20644;-82
2023/08/02 09:22:47;;;;;;;0.10;0.10;;;18.20;99.90;;;;;;5002818;28;20183;-82
2023/08/02 09:25:26;;;;;;;0.10;0.10;;;18.10;99.90;;;;;;5000227;28;20290;-82
2023/08/02 09:27:54;;;;;;;0.10;0.10;;;18.20;99.90;;;;;;5002058;28;20216;-82
2023/08/02 09:30:29;;;;;;;0.10;0.10;;;18.10;99.90;;;;;;4999169;28;20564;-82
2023/08/02 09:32:59;;;;;;;0.10;0.10;;;18.30;99.90;;;;;;5017655;28;20190;-82
2023/08/02 09:35:25;;;;;;;0.10;0.10;;;18.30;99.90;;;;;;5017158;28;20682;-81
2023/08/02 09:37:50;;;;;;;0.10;0.10;;;18.40;99.90;;;;;;5017864;28;20272;-83
2023/08/02 09:40:16;;;;;;;0.10;0.10;;;18.40;99.90;;;;;;5002065;28;20191;-82
2023/08/02 09:42:41;;;;;;;0.10;0.10;;;18.50;99.90;;;;;;5001408;28;20213;-82
2023/08/02 09:45:08;;;;;;;0.10;0.10;;;18.60;99.90;;;;;;5004575;28;20229;-81
2023/08/02 09:47:34;;;;;;;0.10;0.10;;;18.60;99.90;;;;;;5004604;28;20190;-82
2023/08/02 09:50:11;;;;;;;0.10;0.10;;;18.60;99.90;;;;;;5003581;28;20203;-82
2023/08/02 09:52:38;;;;;;;0.10;0.10;;;18.60;99.90;;;;;;5017899;28;20203;-82
2023/08/02 09:55:05;;;;;;;0.10;0.10;;;18.60;99.90;;;;;;5002797;28;20269;-82
2023/08/02 09:57:31;;;;;;;0.10;0.10;;;18.70;99.90;;;;;;5004286;28;20556;-82
2023/08/02 10:00:06;;;;;;;0.10;0.10;;;18.70;99.90;;;;;;5017747;28;20192;-82
2023/08/02 10:02:35;;;;;;;0.10;0.10;;;18.80;99.90;;;;;;5001243;28;20292;-82
2023/08/02 10:05:03;;;;;;;0.10;0.10;;;18.90;99.90;;;;;;5001846;28;20723;-82
2023/08/02 10:07:32;;;;;;;0.10;0.10;;;18.90;99.90;;;;;;4998850;28;20225;-82
2023/08/02 10:10:04;;;;;;;0.10;0.10;;;18.90;99.90;;;;;;5000541;28;20222;-82
2023/08/02 10:12:30;;;;;;;0.10;0.10;;;19.00;99.90;;;;;;5000262;28;20186;-82
2023/08/02 10:14:58;;;;;;;0.10;0.10;;;19.10;99.90;;;;;;5003505;28;20896;-84
2023/08/02 10:17:25;;;;;;;0.10;0.10;;;19.10;99.90;;;;;;5018432;28;20289;-83
2023/08/02 10:19:51;;;;;;;0.10;0.10;;;19.20;99.90;;;;;;5001801;28;20197;-83
2023/08/02 10:22:18;;;;;;;0.10;0.10;;;19.30;99.90;;;;;;5001980;28;20191;-83
2023/08/02 10:24:45;;;;;;;0.10;0.10;;;19.40;99.90;;;;;;5002183;28;20255;-83
2023/08/02 10:27:12;;;;;;;0.10;0.10;;;19.50;99.90;;;;;;5003902;28;20611;-83
2023/08/02 10:29:39;;;;;;;0.10;0.10;;;19.60;99.90;;;;;;5002111;28;20198;-83
2023/08/02 10:32:18;;;;;;;0.10;0.10;;;19.60;99.90;;;;;;5017722;28;20197;-83
2023/08/02 10:34:46;;;;;;;0.10;0.10;;;19.60;99.90;;;;;;5004013;28;20321;-82
2023/08/02 10:37:12;;;;;;;0.10;0.10;;;19.70;99.90;;;;;;5004038;28;20183;-82
2023/08/02 10:39:47;;;;;;;0.10;0.10;;;19.80;99.90;;;;;;5004565;28;20195;-82
2023/08/02 10:42:17;;;;;;;0.10;0.10;;;19.90;99.90;;;;;;5003671;28;20549;-83
2023/08/02 10:44:55;;;;;;;0.10;0.10;;;19.80;99.90;;;;;;5002648;28;20419;-83
2023/08/02 10:47:28;;;;;;;0.10;0.10;;;19.90;99.90;;;;;;5002028;28;20190;-82
2023/08/02 10:49:54;;;;;;;0.10;0.10;;;19.90;99.90;;;;;;5020467;28;20207;-83
2023/08/02 10:52:25;;;;;;;0.10;0.10;;;19.90;99.90;;;;;;5009057;28;20198;-83
2023/08/02 10:55:14;;;;;;;0.10;0.10;;;20.00;99.90;;;;;;5015289;28;20207;-82
2023/08/02 10:58:07;;;;;;;0.10;0.10;;;20.10;99.90;;;;;;5029104;28;20189;-81
2023/08/02 11:00:35;;;;;;;0.10;0.10;;;20.00;99.90;;;;;;5011339;28;21048;-83
2023/08/02 11:03:01;;;;;;;0.10;0.10;;;20.00;99.90;;;;;;5012242;28;20184;-83
2023/08/02 11:05:44;;;;;;;0.10;0.10;;;20.00;99.90;;;;;;5026534;28;20381;-82
2023/08/02 11:08:10;;;;;;;0.10;0.10;;;20.10;99.90;;;;;;5009822;28;20220;-82
2023/08/02 11:10:50;;;;;;;0.10;0.10;;;20.10;99.90;;;;;;5005930;28;20219;-82
2023/08/02 11:13:16;;;;;;;0.10;0.10;;;20.20;99.90;;;;;;5007009;28;20210;-82
2023/08/02 11:15:42;;;;;;;0.10;0.10;;;20.30;99.90;;;;;;5006209;28;20216;-82
2023/08/02 11:18:08;;;;;;;0.10;0.10;;;20.20;99.90;;;;;;5005744;28;20183;-83
2023/08/02 11:20:37;;;;;;;0.10;0.10;;;20.20;99.90;;;;;;5006494;28;20212;-82
2023/08/02 11:23:19;;;;;;;0.10;0.10;;;20.10;99.90;;;;;;5004873;28;20187;-83
2023/08/02 11:25:47;;;;;;;0.10;0.10;;;20.10;99.90;;;;;;5022860;28;20187;-84
2023/08/02 11:28:13;;;;;;;0.10;0.10;;;20.20;99.90;;;;;;5005025;28;20194;-83
2023/08/02 11:30:38;;;;;;;0.10;0.10;;;20.20;99.90;;;;;;5005507;28;20194;-84
2023/08/02 11:33:05;;;;;;;0.10;0.10;;;20.20;99.90;;;;;;5007184;28;20187;-83
2023/08/02 11:35:31;;;;;;;0.10;0.10;;;20.20;99.90;;;;;;5005982;28;20294;-82
2023/08/02 11:37:57;;;;;;;0.10;0.10;;;20.30;99.90;;;;;;5003493;28;20356;-82
2023/08/02 11:40:23;;;;;;;0.10;0.10;;;20.20;99.90;;;;;;5004299;28;20615;-82
2023/08/02 11:42:50;;;;;;;0.10;0.10;;;20.10;99.90;;;;;;5020866;28;20194;-83
2023/08/02 11:45:32;;;;;;;0.10;0.10;;;20.10;99.90;;;;;;5006267;28;20214;-83
2023/08/02 11:47:58;;;;;;;0.10;0.10;;;20.10;99.90;;;;;;5031857;28;20176;-83
2023/08/02 11:50:25;;;;;;;0.10;0.10;;;20.10;99.90;;;;;;5010569;28;20212;-82
2023/08/02 11:52:51;;;;;;;0.10;0.10;;;20.30;99.90;;;;;;5025834;28;20744;-82
2023/08/02 11:55:19;;;;;;;0.10;0.10;;;20.30;99.90;;;;;;5009219;28;20293;-82
2023/08/02 11:57:46;;;;;;;0.10;0.10;;;20.40;99.90;;;;;;5009517;28;20183;-83
2023/08/02 12:00:12;;;;;;;0.10;0.10;;;20.40;99.90;;;;;;5008808;28;20241;-82
2023/08/02 12:02:38;;;;;;;0.10;0.10;;;20.50;99.90;;;;;;5008014;28;20179;-82
2023/08/02 12:05:08;;;;;;;0.10;0.10;;;20.40;99.90;;;;;;5005388;28;20227;-81
2023/08/02 12:07:35;;;;;;;0.10;0.10;;;20.40;99.90;;;;;;5022941;28;20559;-83
2023/08/02 12:10:03;;;;;;;0.10;0.10;;;20.30;99.90;;;;;;5021680;28;20656;-83
2023/08/02 12:12:29;;;;;;;0.10;0.10;;;20.30;99.90;;;;;;5007483;28;20178;-82
2023/08/02 12:14:56;;;;;;;0.10;0.10;;;20.40;99.90;;;;;;5007107;28;20221;-83
2023/08/02 12:17:23;;;;;;;0.10;0.10;;;20.50;99.90;;;;;;5007496;28;20183;-83
2023/08/02 12:19:49;;;;;;;0.10;0.10;;;20.50;99.90;;;;;;5004302;28;21318;-83
2023/08/02 12:22:16;;;;;;;0.10;0.10;;;20.60;99.90;;;;;;5003889;28;20703;-83
2023/08/02 12:24:42;;;;;;;0.10;0.10;;;20.70;99.90;;;;;;5004536;28;20237;-82
2023/08/02 12:27:12;;;;;;;0.10;0.10;;;20.60;99.90;;;;;;5005124;28;21064;-83
2023/08/02 12:29:37;;;;;;;0.10;0.10;;;20.60;99.90;;;;;;5018248;28;20187;-82
2023/08/02 12:32:03;;;;;;;0.10;0.10;;;20.60;99.90;;;;;;5019560;28;20268;-83
2023/08/02 12:34:29;;;;;;;0.10;0.10;;;20.70;99.90;;;;;;5018645;28;20227;-82
2023/08/02 12:36:56;;;;;;;0.10;0.10;;;20.80;99.90;;;;;;5019158;28;20183;-83
2023/08/02 12:39:22;;;;;;;0.10;0.10;;;20.90;99.90;;;;;;5003049;28;20202;-83
2023/08/02 12:41:48;;;;;;;0.10;0.10;;;20.90;99.90;;;;;;5003405;28;20199;-82
2023/08/02 12:44:13;;;;;;;0.10;0.10;;;20.90;99.90;;;;;;5004016;28;20218;-83
2023/08/02 12:46:39;;;;;;;0.10;0.10;;;21.10;99.90;;;;;;5004499;28;20190;-83